Time;durP1;ratioP1;P1;durP2;ratioP2;P2;SDS_P1;SDS_P2;PMS_P1;PMS_P2;Temp;Humidity;BMP_temperature;BMP_pressure;BME280_temperature;BME280_humidity;BME280_pressure;Samples;Min_cycle;Max_cycle;Signal;HPM_P1;HPM_P2
2022/02/19 00:00:08;;;;;;;6.97;2.10;;;;;;;0.73;68.55;97727.09;5044411;28;20049;-71
2022/02/19 00:02:41;;;;;;;6.13;1.70;;;;;;;0.72;68.62;97725.47;5046311;28;20077;-76
2022/02/19 00:05:08;;;;;;;4.22;1.70;;;;;;;0.77;68.58;97729.00;5038807;28;20127;-76
2022/02/19 00:07:34;;;;;;;;;;;;;;;0.88;68.08;97732.53;5044602;28;20053;-76
2022/02/19 00:10:01;;;;;;;6.60;1.92;;;;;;;0.77;68.35;97733.56;5047078;28;19935;-76
2022/02/19 00:12:29;;;;;;;5.55;1.60;;;;;;;0.89;68.14;97741.44;5041437;28;20098;-76
2022/02/19 00:14:55;;;;;;;6.75;1.98;;;;;;;0.79;68.32;97728.75;5047958;28;20501;-76
2022/02/19 00:17:22;;;;;;;6.80;1.80;;;;;;;0.76;68.49;97746.22;5060360;28;20243;-75
2022/02/19 00:19:48;;;;;;;6.50;2.47;;;;;;;0.75;68.48;97752.66;5027425;28;20053;-76
2022/02/19 00:22:15;;;;;;;6.57;2.15;;;;;;;0.68;68.83;97750.22;5041035;28;20144;-75
2022/02/19 00:24:42;;;;;;;7.32;1.80;;;;;;;0.77;68.83;97745.16;5061209;28;20419;-75
2022/02/19 00:27:08;;;;;;;5.38;1.73;;;;;;;0.75;68.77;97747.28;5038239;28;20060;-76
2022/02/19 00:29:36;;;;;;;4.93;1.80;;;;;;;0.67;69.00;97748.59;5055196;28;20053;-75
2022/02/19 00:32:05;;;;;;;5.30;1.73;;;;;;;0.81;68.63;97756.19;5044359;28;20531;-76
2022/02/19 00:34:31;;;;;;;6.97;2.00;;;;;;;0.72;69.21;97755.06;5046194;28;20045;-76
2022/02/19 00:36:58;;;;;;;6.82;2.10;;;;;;;0.63;69.59;97747.50;5046452;28;20509;-76
2022/02/19 00:39:24;;;;;;;5.70;1.60;;;;;;;0.73;69.37;97762.06;5046378;28;20045;-76
2022/02/19 00:41:50;;;;;;;7.57;2.00;;;;;;;0.74;69.38;97750.22;5047291;28;20053;-76
2022/02/19 00:44:17;;;;;;;7.43;1.90;;;;;;;0.79;69.15;97756.44;5029929;28;20073;-76
2022/02/19 00:46:43;;;;;;;5.50;1.70;;;;;;;0.91;68.72;97758.94;5050385;28;20045;-76
2022/02/19 00:49:10;;;;;;;4.65;1.70;;;;;;;0.86;69.02;97766.97;5050052;28;20151;-76
2022/02/19 00:51:40;;;;;;;5.82;1.80;;;;;;;0.62;70.04;97756.59;5049148;28;20053;-76
2022/02/19 00:54:06;;;;;;;5.30;1.80;;;;;;;0.68;69.97;97757.47;5052028;28;20432;-75
2022/02/19 00:56:33;;;;;;;7.38;2.08;;;;;;;0.66;70.03;97743.47;5064109;28;20076;-75
2022/02/19 00:58:59;;;;;;;5.25;1.50;;;;;;;0.83;69.50;97748.69;5049656;28;20398;-76
2022/02/19 01:01:26;;;;;;;7.90;1.88;;;;;;;0.73;69.81;97737.84;5047982;28;20651;-76
2022/02/19 01:04:11;;;;;;;3.78;1.50;;;;;;;0.81;69.72;97745.44;5051841;28;20512;-76
2022/02/19 01:06:37;;;;;;;7.20;1.75;;;;;;;0.79;69.86;97721.47;5033196;28;20056;-76
2022/02/19 01:09:05;;;;;;;6.13;1.90;;;;;;;0.88;69.66;97731.75;5049610;28;20136;-76
2022/02/19 01:11:31;;;;;;;5.70;1.80;;;;;;;0.97;69.29;97728.28;5046111;28;20049;-76
2022/02/19 01:13:57;;;;;;;6.82;2.10;;;;;;;0.88;69.42;97723.69;5061355;28;20049;-77
2022/02/19 01:16:23;;;;;;;6.38;1.80;;;;;;;0.79;70.04;97726.06;5030745;28;20049;-76
2022/02/19 01:18:50;;;;;;;6.53;1.73;;;;;;;0.84;69.96;97726.88;5050904;28;20047;-76
2022/02/19 01:21:17;;;;;;;4.25;1.55;;;;;;;0.84;69.94;97710.72;5045911;28;20068;-76
2022/02/19 01:23:43;;;;;;;9.27;2.00;;;;;;;0.90;69.70;97718.84;5035520;28;20056;-76
2022/02/19 01:26:09;;;;;;;4.05;1.60;;;;;;;0.90;69.76;97719.63;5031642;28;20040;-76
2022/02/19 01:28:39;;;;;;;5.50;1.70;;;;;;;0.90;69.73;97716.94;5056036;28;20045;-76
2022/02/19 01:31:06;;;;;;;4.72;1.70;;;;;;;0.84;69.89;97721.50;5048390;28;20049;-75
2022/02/19 01:33:32;;;;;;;6.15;2.03;;;;;;;0.93;69.66;97713.72;5050446;28;20508;-76
2022/02/19 01:35:59;;;;;;;6.07;1.80;;;;;;;0.96;69.62;97689.00;5030552;28;20110;-76
2022/02/19 01:38:28;;;;;;;6.22;1.75;;;;;;;1.02;69.46;97695.22;5065090;28;20048;-76
2022/02/19 01:40:54;;;;;;;5.30;1.85;;;;;;;0.98;69.66;97708.38;5026838;28;20111;-76
2022/02/19 01:43:21;;;;;;;6.90;1.92;;;;;;;0.97;69.72;97689.78;5040691;28;20052;-75
2022/02/19 01:45:47;;;;;;;5.07;1.73;;;;;;;1.08;69.55;97682.56;5051698;28;20059;-76
2022/02/19 01:48:14;;;;;;;4.50;1.60;;;;;;;1.07;69.38;97694.41;5043508;28;20053;-76
2022/02/19 01:50:40;;;;;;;6.22;1.95;;;;;;;1.11;69.26;97684.75;5050268;28;20435;-76
2022/02/19 01:53:07;;;;;;;6.18;2.05;;;;;;;0.97;69.38;97674.47;5050740;28;20049;-75
2022/02/19 01:55:41;;;;;;;7.93;1.85;;;;;;;1.05;69.57;97685.78;5047741;28;21471;-75
2022/02/19 01:58:29;;;;;;;8.23;2.08;;;;;;;1.09;69.27;97679.63;5042702;28;20397;-76
2022/02/19 02:01:16;;;;;;;7.03;2.00;;;;;;;1.08;69.45;97682.56;5050165;28;20037;-75
2022/02/19 02:04:03;;;;;;;4.10;1.77;;;;;;;1.07;69.45;97697.09;5050600;28;20065;-75
2022/02/19 02:06:32;;;;;;;4.70;1.83;;;;;;;0.97;69.74;97682.53;5029278;28;20183;-76
2022/02/19 02:09:04;;;;;;;6.60;2.05;;;;;;;1.01;69.83;97684.69;5029359;28;20151;-76
2022/02/19 02:11:36;;;;;;;8.90;2.17;;;;;;;1.03;69.68;97690.63;5032220;28;20544;-76
2022/02/19 02:14:03;;;;;;;7.85;1.90;;;;;;;0.86;70.27;97683.56;5049655;28;20048;-76
2022/02/19 02:16:57;;;;;;;6.57;2.05;;;;;;;0.82;70.22;97685.97;5048930;28;20038;-76
2022/02/19 02:19:25;;;;;;;6.78;2.30;;;;;;;0.89;70.47;97693.00;5027476;28;20045;-76
2022/02/19 02:22:00;;;;;;;8.05;2.03;;;;;;;0.79;70.67;97701.84;5046477;28;20060;-76
2022/02/19 02:24:32;;;;;;;6.95;2.00;;;;;;;0.87;70.70;97709.41;5065258;28;20053;-76
2022/02/19 02:26:59;;;;;;;4.47;1.83;;;;;;;0.91;70.74;97701.63;5046668;28;20053;-76
2022/02/19 02:29:26;;;;;;;7.70;2.08;;;;;;;0.94;70.50;97688.47;5040552;28;20057;-76
2022/02/19 02:31:52;;;;;;;6.53;2.00;;;;;;;0.99;70.37;97706.47;5047407;28;20056;-76
2022/02/19 02:34:21;;;;;;;5.90;1.80;;;;;;;0.95;70.50;97691.94;5048974;28;20090;-76
2022/02/19 02:36:47;;;;;;;6.00;1.92;;;;;;;0.91;70.88;97699.72;5042731;28;20103;-76
2022/02/19 02:39:17;;;;;;;7.80;2.03;;;;;;;0.90;70.67;97690.03;5049366;28;20410;-76
2022/02/19 02:41:43;;;;;;;6.65;2.90;;;;;;;0.99;70.72;97693.03;5049056;28;20053;-76
2022/02/19 02:44:09;;;;;;;6.05;2.13;;;;;;;0.93;70.91;97688.72;5042931;28;20095;-76
2022/02/19 02:46:37;;;;;;;7.35;2.10;;;;;;;0.93;70.86;97689.50;5043075;28;20509;-76
2022/02/19 02:49:07;;;;;;;6.70;2.20;;;;;;;0.98;70.64;97686.84;5047642;28;20089;-76
2022/02/19 02:51:33;;;;;;;7.13;2.30;;;;;;;1.00;70.44;97689.25;5040889;28;20083;-76
2022/02/19 02:53:59;;;;;;;7.18;2.33;;;;;;;0.97;70.77;97682.53;5015238;28;20072;-76
2022/02/19 02:56:29;;;;;;;8.57;2.25;;;;;;;0.93;70.71;97691.41;5061473;28;20064;-76
2022/02/19 02:58:55;;;;;;;8.53;2.47;;;;;;;0.91;70.82;97683.56;5044121;28;20067;-76
2022/02/19 03:01:21;;;;;;;7.30;2.53;;;;;;;0.86;71.20;97699.72;5016890;28;20052;-75
2022/02/19 03:03:48;;;;;;;7.32;2.35;;;;;;;0.76;71.58;97708.56;5051539;28;20124;-76
2022/02/19 03:06:14;;;;;;;9.80;2.50;;;;;;;0.81;71.66;97687.03;5062565;28;20506;-76
2022/02/19 03:08:44;;;;;;;7.45;2.42;;;;;;;0.87;71.45;97697.84;5045968;28;20059;-77
2022/02/19 03:11:13;;;;;;;7.72;2.20;;;;;;;0.91;71.37;97685.47;5047871;28;20048;-76
2022/02/19 03:13:42;;;;;;;6.30;2.30;;;;;;;0.89;71.18;97704.56;5063968;28;20052;-77
2022/02/19 03:16:08;;;;;;;8.25;2.20;;;;;;;0.85;71.48;97696.19;5043082;28;20041;-76
2022/02/19 03:18:37;;;;;;;7.25;2.20;;;;;;;0.87;71.56;97698.63;5060622;28;20057;-77
2022/02/19 03:21:03;;;;;;;7.75;2.53;;;;;;;0.86;71.65;97694.34;5026268;28;20045;-76
2022/02/19 03:23:32;;;;;;;7.03;2.25;;;;;;;0.86;71.50;97691.63;5058694;28;20053;-76
2022/02/19 03:25:59;;;;;;;5.03;1.90;;;;;;;0.78;71.87;97713.66;5045268;28;20063;-76
2022/02/19 03:28:25;;;;;;;9.77;2.40;;;;;;;0.81;71.98;97711.25;5048361;28;20053;-76
2022/02/19 03:30:57;;;;;;;7.00;2.42;;;;;;;0.81;71.90;97719.31;5047768;28;20052;-76
2022/02/19 03:33:46;;;;;;;7.80;2.15;;;;;;;0.80;72.08;97704.25;5060898;28;20064;-77
2022/02/19 03:36:16;;;;;;;5.53;2.00;;;;;;;0.81;71.94;97713.16;5047464;28;20053;-76
2022/02/19 03:38:42;;;;;;;7.70;2.10;;;;;;;0.59;72.94;97730.25;5048716;28;20049;-75
2022/02/19 03:41:17;;;;;;;7.50;2.53;;;;;;;0.67;72.74;97728.94;5043867;28;20524;-75
2022/02/19 03:43:43;;;;;;;6.85;2.30;;;;;;;0.70;72.86;97725.72;5052996;28;20064;-76
2022/02/19 03:46:10;;;;;;;6.25;1.98;;;;;;;0.80;72.19;97695.41;5013147;28;20045;-75
2022/02/19 03:49:02;;;;;;;6.43;2.13;;;;;;;0.75;72.46;97706.94;5031184;28;20151;-75
2022/02/19 03:51:30;;;;;;;6.95;2.22;;;;;;;0.80;72.54;97708.84;5036660;28;20103;-75
2022/02/19 03:53:57;;;;;;;8.53;2.10;;;;;;;0.84;72.33;97707.25;5059980;28;20041;-75
2022/02/19 03:56:27;;;;;;;5.30;2.00;;;;;;;0.85;72.16;97701.56;5044600;28;20055;-76
2022/02/19 03:58:58;;;;;;;6.88;2.13;;;;;;;0.79;72.44;97710.72;5051646;28;20045;-76
2022/02/19 04:01:25;;;;;;;5.63;1.88;;;;;;;0.83;72.30;97697.56;5061529;28;20122;-76
2022/02/19 04:03:55;;;;;;;10.30;2.65;;;;;;;0.90;72.14;97690.03;5047422;28;20531;-76
2022/02/19 04:06:21;;;;;;;7.78;2.13;;;;;;;0.96;71.79;97697.06;5048248;28;20049;-76
2022/02/19 04:08:48;;;;;;;5.50;1.75;;;;;;;0.96;71.90;97710.53;5058797;28;20069;-76
2022/02/19 04:11:15;;;;;;;3.97;1.60;;;;;;;0.97;71.80;97693.31;5060812;28;20441;-76
2022/02/19 04:13:43;;;;;;;;;;;;;;;1.04;71.86;97694.94;5032564;28;20045;-76
2022/02/19 04:16:13;;;;;;;7.13;1.90;;;;;;;1.06;71.27;97690.09;5062354;28;19977;-76
2022/02/19 04:18:45;;;;;;;5.47;1.90;;;;;;;1.04;71.47;97701.13;5047179;28;20057;-76
2022/02/19 04:21:14;;;;;;;7.00;2.00;;;;;;;0.98;71.82;97681.47;5062009;28;20060;-76
2022/02/19 04:23:41;;;;;;;7.15;2.10;;;;;;;1.02;71.78;97665.59;5051347;28;20485;-75
2022/02/19 04:26:10;;;;;;;8.95;2.38;;;;;;;1.07;72.01;97667.47;5046659;28;20056;-76
2022/02/19 04:28:43;;;;;;;5.63;2.03;;;;;;;0.98;72.29;97688.72;5050766;28;20125;-76
2022/02/19 04:31:13;;;;;;;5.10;1.88;;;;;;;1.05;71.97;97666.94;5036126;28;20106;-75
2022/02/19 04:33:40;;;;;;;6.38;2.22;;;;;;;1.13;71.76;97666.44;5031500;28;20080;-76
2022/02/19 04:36:06;;;;;;;6.90;2.40;;;;;;;1.16;71.61;97665.91;5066924;28;20053;-77
2022/02/19 04:38:37;;;;;;;10.38;2.72;;;;;;;1.14;71.77;97668.06;5057752;28;20475;-76
2022/02/19 04:41:03;;;;;;;10.85;2.40;;;;;;;1.08;71.79;97658.34;5048079;28;20053;-76
2022/02/19 04:43:29;;;;;;;10.05;2.63;;;;;;;1.18;71.79;97641.41;5066713;28;20090;-77
2022/02/19 04:45:55;;;;;;;8.52;2.58;;;;;;;1.12;71.77;97654.06;5046218;28;20072;-77
2022/02/19 04:48:22;;;;;;;10.45;2.92;;;;;;;1.09;72.24;97658.06;5067413;28;20148;-76
2022/02/19 04:50:52;;;;;;;8.95;2.67;;;;;;;1.04;71.78;97652.69;5029427;28;20049;-76
2022/02/19 04:53:20;;;;;;;9.10;2.97;;;;;;;0.94;72.37;97675.00;5045005;28;20164;-76
2022/02/19 04:55:46;;;;;;;8.40;2.70;;;;;;;0.87;72.55;97658.28;5049010;28;20357;-76
2022/02/19 04:58:21;;;;;;;7.50;2.58;;;;;;;0.96;72.14;97658.56;5040440;28;20072;-76
2022/02/19 05:00:48;;;;;;;8.63;2.80;;;;;;;0.96;72.28;97658.56;5054745;28;20060;-76
2022/02/19 05:03:20;;;;;;;8.68;2.70;;;;;;;0.90;72.25;97668.50;5048712;28;20076;-76
2022/02/19 05:06:13;;;;;;;6.85;2.50;;;;;;;0.92;72.30;97669.03;5045935;28;20530;-76
2022/02/19 05:08:48;;;;;;;8.43;2.80;;;;;;;0.91;72.16;97653.97;5048120;28;20048;-76
2022/02/19 05:11:15;;;;;;;8.23;2.58;;;;;;;0.83;72.37;97632.97;5048504;28;20049;-76
2022/02/19 05:13:47;;;;;;;8.63;2.72;;;;;;;0.88;72.46;97645.66;5060967;28;20049;-76
2022/02/19 05:16:13;;;;;;;8.43;2.90;;;;;;;0.87;72.38;97665.56;5061225;28;20048;-76
2022/02/19 05:18:47;;;;;;;12.40;2.90;;;;;;;0.80;72.67;97652.34;5048142;28;20077;-76
2022/02/19 05:21:14;;;;;;;6.28;2.50;;;;;;;0.78;72.56;97674.13;5048788;28;20041;-74
2022/02/19 05:23:48;;;;;;;6.25;2.33;;;;;;;0.74;72.66;97674.91;5067615;28;20258;-77
2022/02/19 05:26:14;;;;;;;8.95;2.50;;;;;;;0.67;73.02;97667.06;5047461;28;20060;-76
2022/02/19 05:28:43;;;;;;;8.17;2.60;;;;;;;0.66;72.91;97660.91;5050207;28;20059;-75
2022/02/19 05:31:12;;;;;;;11.32;2.63;;;;;;;0.69;72.89;97686.44;5047666;28;20049;-76
2022/02/19 05:33:49;;;;;;;9.43;2.65;;;;;;;0.56;73.12;97687.72;5049882;28;20126;-76
2022/02/19 05:36:17;;;;;;;7.45;2.50;;;;;;;0.57;73.14;97694.72;5066466;28;20037;-76
2022/02/19 05:38:44;;;;;;;5.90;2.50;;;;;;;0.57;73.28;97708.19;5065524;28;20086;-76
2022/02/19 05:41:11;;;;;;;6.10;2.13;;;;;;;0.41;73.67;97661.59;5044846;28;20045;-76
2022/02/19 05:43:37;;;;;;;8.50;3.08;;;;;;;0.48;73.89;97680.97;5065456;28;20048;-75
2022/02/19 05:46:13;;;;;;;7.90;2.67;;;;;;;0.54;73.65;97660.28;5047268;28;20048;-76
2022/02/19 05:48:39;;;;;;;8.20;2.63;;;;;;;0.58;73.49;97671.34;5033437;28;20080;-75
2022/02/19 05:51:20;;;;;;;9.85;2.53;;;;;;;0.58;73.54;97668.66;5042207;28;20049;-75
2022/02/19 05:53:52;;;;;;;7.88;2.83;;;;;;;0.54;73.63;97677.22;5045123;28;20053;-77
2022/02/19 05:56:19;;;;;;;7.93;2.90;;;;;;;0.58;73.78;97682.09;5063787;28;20505;-77
2022/02/19 05:58:45;;;;;;;7.82;2.70;;;;;;;0.61;73.44;97649.28;5065831;28;20341;-76
2022/02/19 06:01:15;;;;;;;12.10;3.80;;;;;;;0.67;73.42;97656.31;5046462;28;20521;-76
2022/02/19 06:03:48;;;;;;;9.15;3.22;;;;;;;0.62;73.35;97654.41;5049480;28;20424;-76
2022/02/19 06:06:20;;;;;;;7.35;2.50;;;;;;;0.61;73.23;97627.78;5046594;28;20045;-77
2022/02/19 06:08:47;;;;;;;8.90;2.88;;;;;;;0.69;73.13;97629.94;5042908;28;20041;-77
2022/02/19 06:11:14;;;;;;;7.70;2.80;;;;;;;0.63;73.37;97656.03;5046612;28;20049;-78
2022/02/19 06:13:59;;;;;;;7.57;2.40;;;;;;;0.63;73.16;97633.69;5047736;28;20448;-75
2022/02/19 06:16:33;;;;;;;9.10;2.47;;;;;;;0.73;73.15;97643.69;5045843;28;20056;-75
2022/02/19 06:19:03;;;;;;;8.05;2.30;;;;;;;0.75;73.27;97645.06;5041972;28;20333;-76
2022/02/19 06:21:29;;;;;;;7.30;2.63;;;;;;;0.77;72.96;97644.78;5028676;28;20045;-76
2022/02/19 06:23:57;;;;;;;7.75;2.45;;;;;;;0.81;72.80;97660.13;5062823;28;20140;-76
2022/02/19 06:26:26;;;;;;;10.63;2.47;;;;;;;0.81;72.69;97665.50;5064549;28;20052;-76
2022/02/19 06:29:16;;;;;;;10.13;2.75;;;;;;;0.80;72.61;97655.03;5029057;28;20072;-76
2022/02/19 06:31:48;;;;;;;7.07;2.60;;;;;;;0.88;72.54;97638.38;5049055;28;20535;-76
2022/02/19 06:34:14;;;;;;;8.38;2.50;;;;;;;0.81;72.68;97654.75;5039959;28;20053;-75
2022/02/19 06:36:40;;;;;;;8.25;2.50;;;;;;;0.82;72.69;97644.81;5057173;28;20536;-75
2022/02/19 06:39:06;;;;;;;7.80;2.40;;;;;;;0.79;72.49;97656.91;5047146;28;20103;-75
2022/02/19 06:41:35;;;;;;;8.88;2.75;;;;;;;0.88;72.58;97667.16;5041525;28;20053;-75
2022/02/19 06:44:10;;;;;;;10.38;2.85;;;;;;;0.84;72.49;97664.97;5047925;28;20049;-74
2022/02/19 06:46:41;;;;;;;7.40;2.78;;;;;;;0.84;72.01;97654.22;5044317;28;20041;-75
2022/02/19 06:49:08;;;;;;;7.97;2.53;;;;;;;0.92;72.31;97660.97;5030220;28;20135;-76
2022/02/19 06:51:41;;;;;;;12.77;2.88;;;;;;;1.04;71.89;97646.47;5064253;28;20057;-75
2022/02/19 06:54:09;;;;;;;6.55;2.28;;;;;;;0.98;71.80;97649.16;5037437;28;21777;-75
2022/02/19 06:56:35;;;;;;;8.50;2.80;;;;;;;1.01;71.85;97657.78;5050312;28;20560;-75
2022/02/19 06:59:01;;;;;;;8.98;2.88;;;;;;;1.05;71.53;97634.63;5062661;28;20292;-76
2022/02/19 07:01:28;;;;;;;11.30;2.83;;;;;;;1.13;71.28;97645.69;5056797;28;20514;-75
2022/02/19 07:03:58;;;;;;;9.27;2.60;;;;;;;1.22;71.20;97640.59;5061048;28;20053;-75
2022/02/19 07:06:50;;;;;;;10.73;2.83;;;;;;;1.27;71.01;97637.13;5023794;28;20049;-75
2022/02/19 07:09:17;;;;;;;10.05;2.80;;;;;;;1.27;70.91;97643.31;5059499;28;20509;-75
2022/02/19 07:11:44;;;;;;;10.85;2.90;;;;;;;1.20;71.04;97647.34;5044385;28;20051;-75
2022/02/19 07:14:11;;;;;;;9.07;2.88;;;;;;;1.29;70.88;97642.25;5060872;28;20045;-75
2022/02/19 07:16:38;;;;;;;10.43;3.08;;;;;;;1.23;70.83;97654.88;5043533;28;20497;-74
2022/02/19 07:19:06;;;;;;;9.13;2.60;;;;;;;1.25;71.02;97636.56;5014615;28;20056;-75
2022/02/19 07:21:33;;;;;;;10.43;3.33;;;;;;;1.36;70.69;97632.84;5062233;28;20471;-75
2022/02/19 07:23:59;;;;;;;9.32;2.92;;;;;;;1.42;70.52;97631.75;5041750;28;20053;-75
2022/02/19 07:26:29;;;;;;;11.18;3.20;;;;;;;1.47;70.48;97608.59;5050290;28;20370;-75
2022/02/19 07:29:03;;;;;;;10.50;3.08;;;;;;;1.55;70.28;97608.84;5060429;28;20535;-75
2022/02/19 07:31:36;;;;;;;11.85;3.53;;;;;;;1.52;70.47;97601.31;5045667;28;20049;-74
2022/02/19 07:34:02;;;;;;;11.57;3.30;;;;;;;1.36;70.54;97567.38;5065863;28;20497;-74
2022/02/19 07:36:33;;;;;;;12.30;3.58;;;;;;;1.57;70.32;97586.25;5044212;28;20520;-75
2022/02/19 07:39:00;;;;;;;18.27;3.42;;;;;;;1.60;69.91;97583.81;5060482;28;20050;-75
2022/02/19 07:41:29;;;;;;;18.50;3.00;;;;;;;1.72;69.96;97574.63;5031078;28;20103;-76
2022/02/19 07:43:55;;;;;;;9.88;3.05;;;;;;;1.73;69.89;97577.06;5032472;28;20045;-76
2022/02/19 07:46:28;;;;;;;11.77;2.83;;;;;;;1.80;69.35;97564.13;5047950;28;20045;-76
2022/02/19 07:58:19;;;;;;;12.07;3.47;;;;;;;1.90;68.80;97554.41;5059377;28;20052;-77
2022/02/19 08:00:53;;;;;;;10.38;2.67;;;;;;;1.94;68.54;97545.47;5063541;28;20045;-74
2022/02/19 08:03:23;;;;;;;10.48;2.80;;;;;;;1.97;68.49;97553.03;5049033;28;21836;-75
2022/02/19 08:05:57;;;;;;;;;;;;;;;1.95;68.54;97543.59;5046060;28;20042;-77
2022/02/19 08:08:25;;;;;;;9.52;2.90;;;;;;;1.91;68.33;97539.84;5033767;28;19935;-75
2022/02/19 08:10:53;;;;;;;9.88;2.65;;;;;;;1.84;68.51;97523.97;5052115;28;20048;-75
2022/02/19 08:13:21;;;;;;;7.82;2.40;;;;;;;1.91;68.42;97547.94;5052264;28;20131;-75
2022/02/19 08:15:50;;;;;;;;;;;;;;;2.02;68.15;97525.25;5052574;28;20059;-75
2022/02/19 08:18:16;;;;;;;10.38;2.72;;;;;;;2.02;67.72;97511.75;5050121;28;19929;-75
2022/02/19 08:20:46;;;;;;;10.77;2.63;;;;;;;2.16;67.65;97511.19;5052884;28;20504;-75
2022/02/19 08:23:14;;;;;;;7.70;2.53;;;;;;;2.12;67.50;97497.47;5053618;28;20139;-74
2022/02/19 08:25:42;;;;;;;11.90;3.15;;;;;;;2.25;67.19;97504.94;5035543;28;20052;-75
2022/02/19 08:28:08;;;;;;;9.88;3.00;;;;;;;2.31;67.12;97505.72;5051553;28;20048;-74
2022/02/19 08:30:35;;;;;;;10.20;3.13;;;;;;;2.38;67.02;97500.03;5066895;28;20049;-75
2022/02/19 08:33:02;;;;;;;10.88;3.10;;;;;;;2.37;66.81;97487.63;5048970;28;20041;-74
2022/02/19 08:35:28;;;;;;;8.20;2.70;;;;;;;2.35;66.82;97463.66;5034325;28;20045;-75
2022/02/19 08:37:54;;;;;;;8.23;2.67;;;;;;;2.39;66.46;97475.50;5047313;28;20445;-75
2022/02/19 08:40:21;;;;;;;9.20;2.78;;;;;;;2.40;66.23;97473.59;5032220;28;20064;-75
2022/02/19 08:42:48;;;;;;;8.88;2.70;;;;;;;2.35;66.26;97458.25;5052854;28;20060;-74
2022/02/19 08:45:17;;;;;;;9.13;2.80;;;;;;;2.39;66.30;97456.63;5051401;28;20044;-74
2022/02/19 08:47:44;;;;;;;8.55;2.92;;;;;;;2.43;66.26;97461.44;5051501;28;20049;-74
2022/02/19 08:50:12;;;;;;;8.80;2.60;;;;;;;2.44;66.04;97428.00;5034915;28;20497;-73
2022/02/19 08:52:38;;;;;;;6.65;2.25;;;;;;;2.40;65.85;97439.34;5053685;28;20061;-74
2022/02/19 08:55:05;;;;;;;6.72;2.50;;;;;;;2.32;66.04;97463.41;5052296;28;20095;-76
2022/02/19 08:57:31;;;;;;;7.85;2.80;;;;;;;2.40;65.68;97425.84;5034636;28;20405;-75
2022/02/19 08:59:58;;;;;;;9.75;2.25;;;;;;;2.39;65.42;97421.56;5052887;28;20053;-76
2022/02/19 09:02:24;;;;;;;7.87;2.53;;;;;;;2.36;65.57;97413.19;5037746;28;20156;-75
2022/02/19 09:04:50;;;;;;;8.40;2.50;;;;;;;2.43;65.41;97410.19;5063544;28;20723;-74
2022/02/19 09:07:17;;;;;;;8.10;2.70;;;;;;;2.46;65.61;97417.72;5049859;28;20061;-67
2022/02/19 09:09:43;;;;;;;9.48;2.90;;;;;;;2.46;65.36;97442.81;5052889;28;20456;-69
2022/02/19 09:12:10;;;;;;;8.20;2.50;;;;;;;2.29;65.37;97432.38;5051340;28;20057;-69
2022/02/19 09:14:36;;;;;;;6.18;2.05;;;;;;;2.38;65.09;97382.19;5052844;28;20076;-71
2022/02/19 09:17:04;;;;;;;7.10;2.35;;;;;;;2.35;65.25;97392.72;5051428;28;20067;-70
2022/02/19 09:19:31;;;;;;;7.15;2.33;;;;;;;2.40;64.81;97373.78;5050163;28;20052;-70
2022/02/19 09:21:58;;;;;;;9.05;2.33;;;;;;;2.42;64.61;97374.34;5051801;28;20131;-70
2022/02/19 09:24:24;;;;;;;8.40;3.13;;;;;;;2.44;64.74;97368.66;5051483;28;20156;-71
2022/02/19 09:26:50;;;;;;;9.38;2.50;;;;;;;2.46;64.77;97361.06;5050846;28;20051;-69
2022/02/19 09:29:16;;;;;;;8.80;2.40;;;;;;;2.48;64.38;97367.81;5044776;28;20481;-70
2022/02/19 09:31:43;;;;;;;7.10;2.03;;;;;;;2.43;64.17;97353.53;5045543;28;20138;-70
2022/02/19 09:34:10;;;;;;;7.80;2.13;;;;;;;2.32;64.28;97323.94;5051217;28;20110;-69
2022/02/19 09:36:37;;;;;;;6.03;2.07;;;;;;;2.48;64.16;97362.41;5052546;28;20061;-69
2022/02/19 09:39:04;;;;;;;6.80;2.10;;;;;;;2.51;64.39;97345.66;5051637;28;20080;-69
2022/02/19 09:41:31;;;;;;;7.22;2.10;;;;;;;2.47;64.46;97349.19;5048372;28;20048;-76
2022/02/19 09:43:59;;;;;;;10.30;2.50;;;;;;;2.44;64.08;97355.97;5064424;28;20045;-75
2022/02/19 09:46:26;;;;;;;8.98;2.60;;;;;;;2.47;64.10;97358.09;5031086;28;20464;-76
2022/02/19 09:48:53;;;;;;;6.93;2.20;;;;;;;2.45;63.97;97349.50;5035447;28;20057;-76
2022/02/19 09:51:20;;;;;;;7.68;2.00;;;;;;;2.40;63.80;97323.34;5036187;28;20119;-76
2022/02/19 09:53:46;;;;;;;6.83;2.13;;;;;;;2.40;63.96;97336.84;5050872;28;20075;-76
2022/02/19 09:56:12;;;;;;;6.85;2.17;;;;;;;2.46;64.00;97326.81;5045095;28;20052;-75
2022/02/19 09:58:43;;;;;;;7.15;2.28;;;;;;;2.40;63.55;97314.44;5048877;28;20048;-75
2022/02/19 10:01:16;;;;;;;13.57;2.78;;;;;;;2.47;63.58;97324.91;5049994;28;20037;-77
2022/02/19 10:03:44;;;;;;;9.48;2.63;;;;;;;2.47;63.45;97328.44;5050765;28;20049;-77
2022/02/19 10:06:11;;;;;;;8.07;2.20;;;;;;;2.46;63.52;97332.22;5064610;28;20045;-78
2022/02/19 10:08:38;;;;;;;10.63;2.28;;;;;;;2.48;63.91;97321.13;5027260;28;20053;-77
2022/02/19 10:11:04;;;;;;;8.70;2.78;;;;;;;2.46;64.11;97310.63;5042049;28;20060;-76
2022/02/19 10:13:32;;;;;;;12.32;2.08;;;;;;;2.43;65.08;97340.06;5049627;28;20443;-77
2022/02/19 10:15:59;;;;;;;;;;;;;;;2.28;66.37;97341.78;5047185;28;20554;-76
2022/02/19 10:18:26;;;;;;;6.38;2.15;;;;;;;2.13;67.44;97342.72;5063949;28;19932;-76
2022/02/19 10:21:08;;;;;;;5.45;2.05;;;;;;;2.09;68.38;97285.84;5048034;28;20045;-77
2022/02/19 10:23:35;;;;;;;7.40;2.13;;;;;;;2.06;68.36;97297.19;5048396;28;20148;-76
2022/02/19 10:26:02;;;;;;;7.55;2.35;;;;;;;2.09;68.81;97303.88;5047494;28;20040;-76
2022/02/19 10:28:29;;;;;;;7.00;2.05;;;;;;;2.01;69.29;97285.63;5049446;28;20088;-76
2022/02/19 10:30:55;;;;;;;8.20;2.22;;;;;;;2.01;69.88;97291.03;5049165;28;20126;-76
2022/02/19 10:33:25;;;;;;;10.77;2.40;;;;;;;1.97;69.84;97277.28;5051597;28;20049;-76
2022/02/19 10:35:53;;;;;;;8.02;2.50;;;;;;;1.98;70.29;97270.81;5050980;28;20055;-76
2022/02/19 10:38:20;;;;;;;;;;;;;;;1.88;71.10;97270.91;5052277;28;20118;-76
2022/02/19 10:40:47;;;;;;;7.73;2.10;;;;;;;1.86;71.23;97262.25;5050793;28;20347;-77
2022/02/19 10:43:20;;;;;;;7.40;2.70;;;;;;;1.86;71.63;97252.31;5064587;28;20340;-77
2022/02/19 10:45:55;;;;;;;9.35;2.50;;;;;;;1.83;71.54;97248.28;5050273;28;20123;-77
2022/02/19 10:48:24;;;;;;;9.00;2.42;;;;;;;1.88;71.75;97235.88;5046826;28;20057;-77
2022/02/19 10:50:50;;;;;;;11.30;2.92;;;;;;;1.92;71.64;97234.22;5041865;28;20053;-77
2022/02/19 10:53:22;;;;;;;10.13;3.00;;;;;;;1.90;72.01;97222.91;5045792;28;20048;-76
2022/02/19 10:55:48;;;;;;;7.90;2.70;;;;;;;1.88;72.11;97217.78;5024693;28;20088;-76
2022/02/19 10:58:16;;;;;;;7.15;2.75;;;;;;;1.89;72.33;97216.72;5032327;28;20041;-76
2022/02/19 11:00:44;;;;;;;12.02;4.03;;;;;;;1.79;72.44;97206.81;5034030;28;20045;-76
2022/02/19 11:03:11;;;;;;;16.60;3.75;;;;;;;1.85;72.86;97194.09;5050247;28;20072;-76
2022/02/19 11:05:40;;;;;;;18.35;4.50;;;;;;;1.83;73.13;97193.59;5066503;28;20509;-77
2022/02/19 11:08:07;;;;;;;19.92;3.95;;;;;;;1.75;73.42;97195.00;5046184;28;20060;-77
2022/02/19 11:10:34;;;;;;;11.50;3.43;;;;;;;1.72;73.74;97171.31;5044627;28;20049;-77
2022/02/19 11:13:03;;;;;;;21.45;4.28;;;;;;;1.74;73.85;97165.63;5046641;28;20671;-77
2022/02/19 11:15:31;;;;;;;10.52;3.58;;;;;;;1.69;74.09;97166.47;5047769;28;20084;-76
2022/02/19 11:17:57;;;;;;;16.13;4.50;;;;;;;1.66;74.16;97165.16;5050498;28;20512;-77
2022/02/19 11:20:24;;;;;;;25.52;8.77;;;;;;;1.61;74.13;97127.47;5048165;28;20048;-76
2022/02/19 11:22:53;;;;;;;18.73;6.15;;;;;;;1.55;74.26;97110.53;5049630;28;20053;-75
2022/02/19 11:25:21;;;;;;;19.42;6.60;;;;;;;1.64;74.61;97131.50;5049287;28;20144;-76
2022/02/19 11:27:55;;;;;;;35.75;15.02;;;;;;;1.61;74.58;97119.38;5050892;28;20057;-76
2022/02/19 11:30:24;;;;;;;37.10;11.52;;;;;;;1.63;74.70;97106.44;5048638;28;20073;-76
2022/02/19 11:32:54;;;;;;;25.35;8.32;;;;;;;1.62;74.74;97098.66;5048523;28;20063;-76
2022/02/19 11:35:31;;;;;;;18.45;5.85;;;;;;;1.65;74.87;97095.38;5050887;28;20128;-76
2022/02/19 11:37:58;;;;;;;48.63;17.15;;;;;;;1.47;75.02;97068.06;5044919;28;20048;-68
2022/02/19 11:40:25;;;;;;;25.63;9.40;;;;;;;1.61;75.27;97088.97;5043455;28;20047;-70
2022/02/19 11:42:53;;;;;;;;;;;;;;;1.58;75.04;97074.16;5049762;28;20137;-69
2022/02/19 11:45:25;;;;;;;21.30;6.63;;;;;;;1.53;75.20;97080.38;5065689;28;20372;-69
2022/02/19 11:47:55;;;;;;;22.00;6.90;;;;;;;1.46;75.41;97071.03;5048645;28;20079;-70
2022/02/19 11:50:26;;;;;;;24.30;7.45;;;;;;;1.42;75.66;97070.81;5054509;28;20099;-68
2022/02/19 11:53:21;;;;;;;23.45;6.47;;;;;;;1.34;76.00;97047.97;5049313;28;20476;-71
2022/02/19 11:55:47;;;;;;;25.50;9.93;;;;;;;1.32;76.15;97052.03;5066144;28;20078;-69
2022/02/19 11:58:15;;;;;;;23.10;8.10;;;;;;;1.35;76.06;97048.75;5043172;28;20049;-70